Nyac, Alaska
Current Conditions -  °F | °C
As of 8:56 AM on Saturday 25 Oct 2014 (Local Time) from PALG Reporting Station
Overcast Overcast  
Wind Chill: 21°   Ceiling: 5000
Heat Index: 27°   Visibility: 10mi
Dew Point: 22°   Wind: 6mph
Humidity: 81%   Direction: 100°E
Pressure: 29.86"   Gusts: NA
Location:  61°N, 159.94°W
Report Text: PALG 251656Z AUTO 10005KT 10SM FEW029 OVC050 M03/M06 A2986 RMK AO2 TSNO T10271055 SLP114 $
Loading
Personal Weather Stations






























Interactive Weather Map
Tropical Storm Tracking
New forecast layout! Learn more

10-Day Weather Forecast

Advertisements
Track Severe Weather on mobile